Latest Weather Observations for Mount Boyce

IDN60901

Issued at 1:15 pm EST Thursday 31 July 2014 (issued every 10 minutes, with the page automatically refreshed every 10 minutes)

About weather observations | Map of Sydney area stations | Latest observations for Sydney area | Other Formats
Station Details ID: 063292 Name: MOUNT BOYCE AWS Lat: -33.62 Lon: 150.27 Height: 1080.0 m
Data from the previous 72 hours. | See also: Recent months at Mount Boyce
Date/Time
EST
Tmp

°C
App
Tmp
°C
Dew
Point
°C
Rel
Hum
%
Delta-T

°C
Wind Press
QNH
hPa
Press
MSL
hPa
Rain
since
9 am
mm
Dir
 
Spd
km/h
Gust
km/h
Spd
kts
Gust
kts
31/01:00pm 13.5 2.3 -0.5 38 6.2 W 48 80 26 43 - - 0.0
31/12:46pm 13.5 3.7 -0.2 39 6.1 W 41 85 22 46 - - 0.0
31/12:30pm 13.5 4.1 0.2 40 5.9 WNW 39 65 21 35 - - 0.0
31/12:00pm 13.0 4.4 0.1 41 5.7 W 35 57 19 31 - - 0.0
31/11:30am 12.7 2.6 0.1 42 5.6 W 43 65 23 35 - - 0.0
31/11:00am 12.3 2.2 0.4 44 5.3 W 43 61 23 33 - - 0.0
31/10:30am 11.8 1.5 0.6 46 5.0 W 44 72 24 39 - - 0.0
31/10:00am 11.4 1.4 0.8 48 4.7 W 43 65 23 35 - - 0.0
31/09:30am 10.8 0.7 0.5 49 4.5 W 43 72 23 39 - - 0.0
31/09:27am 10.7 1.4 0.7 50 4.4 W 39 72 21 39 - - 0.0
31/09:04am 10.1 2.6 1.0 53 4.0 W 30 54 16 29 - - 0.0
31/09:00am 10.0 2.1 1.1 54 3.9 W 32 46 17 25 - - 0.0
31/08:33am 9.4 1.5 1.1 56 3.6 W 32 52 17 28 - - 0.0
31/08:30am 9.3 1.4 1.2 57 3.6 W 32 48 17 26 - - 0.0
31/08:09am 8.9 1.0 1.3 59 3.3 W 32 50 17 27 - - 0.0
31/08:00am 8.5 0.7 1.4 61 3.1 W 32 48 17 26 - - 0.0
31/07:37am 8.2 0.2 1.4 62 3.0 W 33 52 18 28 - - 0.0
31/07:30am 8.1 0.2 1.3 62 3.0 W 32 46 17 25 - - 0.0
31/07:00am 8.3 -0.2 1.2 61 3.1 W 35 57 19 31 - - 0.0
31/06:42am 7.9 -0.2 1.3 63 2.9 W 33 52 18 28 - - 0.0
31/06:30am 8.3 -0.2 1.2 61 3.1 W 35 52 19 28 - - 0.0
31/06:00am 8.3 0.5 1.5 62 3.0 W 32 54 17 29 - - 0.0
31/05:30am 8.1 0.7 1.7 64 2.8 W 30 48 16 26 - - 0.0
31/05:07am 8.1 1.1 2.1 66 2.7 W 28 46 15 25 - - 0.0
31/05:00am 8.1 0.4 2.1 66 2.7 W 32 46 17 25 - - 0.0
31/04:33am 8.2 1.3 2.7 68 2.5 W 28 46 15 25 - - 0.0
31/04:30am 8.0 1.5 2.5 68 2.5 W 26 39 14 21 - - 0.0
31/04:00am 8.4 1.1 2.6 67 2.6 W 30 46 16 25 - - 0.0
31/03:39am 8.5 0.3 2.9 68 2.5 W 35 54 19 29 - - 0.0
31/03:30am 8.3 -1.0 3.2 70 2.3 W 41 52 22 28 - - 0.0
31/03:00am 7.4 2.2 3.3 75 1.9 WSW 20 33 11 18 - - 0.0
31/02:30am 7.6 2.4 3.5 75 1.9 WSW 20 33 11 18 - - 0.0
31/02:00am 8.0 0.9 3.8 75 1.9 W 30 43 16 23 - - 0.0
31/01:30am 7.9 0.9 4.1 77 1.8 WSW 30 44 16 24 - - 0.0
31/01:08am 7.6 0.7 4.4 80 1.5 WSW 30 48 16 26 - - 0.0
31/01:00am 7.7 0.4 4.5 80 1.5 WSW 32 41 17 22 - - 0.0
31/12:33am 7.9 -0.3 4.7 80 1.5 W 37 56 20 30 - - 0.0
31/12:30am 8.0 -0.6 4.8 80 1.5 W 39 56 21 30 - - 0.0
31/12:02am 7.8 0.0 4.9 82 1.4 W 35 54 19 29 - - 0.0
31/12:00am 7.8 0.0 4.9 82 1.4 W 35 50 19 27 - - 0.0
 
Date/Time
EST
Tmp

°C
App
Tmp
°C
Dew
Point
°C
Rel
Hum
%
Delta-T

°C
Wind Press
QNH
hPa
Press
MSL
hPa
Rain
since
9 am
mm
Dir
 
Spd
km/h
Gust
km/h
Spd
kts
Gust
kts
30/11:39pm 8.1 0.4 5.2 82 1.4 W 35 54 19 29 - - 0.0
30/11:30pm 7.8 0.6 5.1 83 1.3 W 32 46 17 25 - - 0.0
30/11:00pm 8.1 0.9 5.2 82 1.4 W 32 54 17 29 - - 0.0
30/10:52pm 8.1 1.3 5.2 82 1.4 W 30 54 16 29 - - 0.0
30/10:30pm 8.1 2.9 5.4 83 1.3 W 22 39 12 21 - - 0.0
30/10:00pm 8.2 3.0 5.3 82 1.4 W 22 30 12 16 - - 0.0
30/09:30pm 8.4 2.8 5.3 81 1.5 W 24 41 13 22 - - 0.0
30/09:00pm 8.6 3.3 5.2 79 1.6 W 22 37 12 20 - - 0.0
30/08:30pm 8.8 2.0 5.2 78 1.7 W 30 52 16 28 - - 0.0
30/08:18pm 8.9 2.5 5.3 78 1.7 W 28 46 15 25 - - 0.0
30/08:00pm 8.7 2.7 5.1 78 1.7 W 26 43 14 23 - - 0.0
30/07:37pm 9.0 2.6 5.2 77 1.8 W 28 46 15 25 - - 0.0
30/07:30pm 9.2 2.0 5.2 76 1.9 W 32 46 17 25 - - 0.0
30/07:03pm 9.3 2.2 5.3 76 1.9 W 32 50 17 27 - - 0.0
30/07:00pm 9.2 2.0 5.2 76 1.9 W 32 43 17 23 - - 0.0
30/06:30pm 9.0 1.8 5.2 77 1.8 W 32 48 17 26 - - 0.0
30/06:10pm 9.1 2.0 5.3 77 1.8 W 32 50 17 27 - - 0.0
30/06:00pm 9.2 1.5 5.2 76 1.9 W 35 50 19 27 - - 0.0
30/05:52pm 9.0 1.8 5.2 77 1.8 W 32 50 17 27 - - 0.0
30/05:30pm 9.1 2.3 5.1 76 1.9 W 30 43 16 23 - - 0.0
30/05:00pm 10.0 2.6 5.0 71 2.4 W 33 50 18 27 - - 0.0
30/04:30pm 10.3 3.2 5.3 71 2.4 W 32 54 17 29 - - 0.0
30/04:02pm 10.9 3.8 5.4 69 2.7 W 32 50 17 27 - - 0.0
30/04:00pm 10.9 3.7 5.2 68 2.8 W 32 48 17 26 - - 0.0
30/03:30pm 10.7 3.3 4.8 67 2.8 W 33 56 18 30 - - 0.0
30/03:00pm 11.3 4.6 5.4 67 2.9 WSW 30 52 16 28 - - 0.0
30/02:30pm 11.5 3.7 4.9 64 3.2 W 35 72 19 39 - - 0.0
30/02:00pm 11.2 1.8 4.4 63 3.3 W 43 67 23 36 - - 0.0
30/01:30pm 11.2 0.9 4.7 64 3.1 W 48 78 26 42 - - 0.0
30/01:00pm 11.4 2.8 4.6 63 3.3 W 39 61 21 33 - - 0.0
30/12:30pm 10.3 2.5 4.9 69 2.6 WSW 35 56 19 30 - - 0.0
30/12:08pm 10.4 3.2 5.2 70 2.5 W 32 50 17 27 - - 0.0
30/12:00pm 10.2 3.0 5.2 71 2.4 W 32 46 17 25 - - 0.0
30/11:30am 10.4 3.1 5.4 71 2.4 WSW 33 54 18 29 - - 0.0
30/11:00am 10.4 2.7 5.4 71 2.4 W 35 57 19 31 - - 0.0
30/10:32am 9.7 1.1 4.7 71 2.4 W 39 61 21 33 - - 0.0
30/10:30am 9.8 1.2 4.8 71 2.4 W 39 52 21 28 - - 0.0
30/10:00am 9.7 2.5 5.1 73 2.2 W 32 54 17 29 - - 0.0
30/09:35am 9.0 1.6 4.8 75 2.0 W 33 52 18 28 - - 0.0
30/09:30am 8.8 1.6 4.8 76 1.9 W 32 44 17 24 - - 0.0
30/09:12am 8.4 1.1 4.4 76 1.9 W 32 50 17 27 - - 0.0
30/09:00am 8.0 0.6 4.2 77 1.8 W 32 46 17 25 - - 0.0
30/08:30am 7.3 0.2 3.5 77 1.7 W 30 41 16 22 - - 0.0
30/08:17am 7.2 0.5 3.4 77 1.7 W 28 46 15 25 - - 0.0
30/08:00am 6.7 0.3 3.0 77 1.7 W 26 35 14 19 - - 0.0
30/07:30am 6.5 0.4 2.8 77 1.6 WSW 24 43 13 23 - - 0.0
30/07:00am 6.4 -0.5 2.5 76 1.7 W 28 41 15 22 - - 0.0
30/06:30am 6.3 -1.4 2.4 76 1.7 W 32 44 17 24 - - 0.0
30/06:00am 6.3 -2.4 2.0 74 1.9 WSW 37 48 20 26 - - 0.0
30/05:30am 6.6 -1.3 2.1 73 2.0 WSW 33 46 18 25 - - 0.0
30/05:00am 6.7 -0.3 1.8 71 2.1 WSW 28 37 15 20 - - 0.0
30/04:30am 6.7 0.0 1.4 69 2.3 WSW 26 35 14 19 - - 0.0
30/04:00am 6.9 -0.3 1.0 66 2.5 WSW 28 43 15 23 - - 0.0
30/03:30am 7.1 -0.1 0.5 63 2.8 WSW 28 43 15 23 - - 0.0
30/03:06am 7.5 -0.5 0.5 61 3.0 W 32 50 17 27 - - 0.0
30/03:00am 7.5 -0.5 0.5 61 3.0 W 32 44 17 24 - - 0.0
30/02:31am 7.6 -0.1 0.1 59 3.2 W 30 48 16 26 - - 0.0
30/02:30am 7.7 -0.3 0.2 59 3.2 W 32 48 17 26 - - 0.0
30/02:00am 8.0 0.0 0.3 58 3.3 W 32 52 17 28 - - 0.0
30/01:30am 8.5 0.5 0.2 56 3.5 W 32 56 17 30 - - 0.0
30/01:00am 8.7 -0.3 0.4 56 3.6 W 37 59 20 32 - - 0.0
30/12:30am 8.8 0.2 0.5 56 3.6 W 35 56 19 30 - - 0.0
30/12:00am 8.7 0.5 0.2 55 3.6 W 33 52 18 28 - - 0.0
 
Date/Time
EST
Tmp

°C
App
Tmp
°C
Dew
Point
°C
Rel
Hum
%
Delta-T

°C
Wind Press
QNH
hPa
Press
MSL
hPa
Rain
since
9 am
mm
Dir
 
Spd
km/h
Gust
km/h
Spd
kts
Gust
kts
29/11:30pm 9.0 0.8 0.2 54 3.8 WSW 33 59 18 32 - - 0.0
29/11:00pm 9.2 1.0 0.1 53 3.9 WSW 33 59 18 32 - - 0.0
29/10:30pm 9.4 0.8 0.3 53 3.9 W 35 69 19 37 - - 0.0
29/10:00pm 9.5 0.6 0.7 54 3.8 W 37 69 20 37 - - 0.0
29/09:30pm 9.6 0.3 0.5 53 3.9 W 39 65 21 35 - - 0.0
29/09:00pm 9.4 1.3 0.8 55 3.7 W 33 56 18 30 - - 0.0
29/08:30pm 9.2 1.7 1.1 57 3.5 W 30 57 16 31 - - 0.0
29/08:08pm 9.3 2.2 1.2 57 3.6 W 28 50 15 27 - - 0.0
29/08:00pm 9.2 2.4 1.1 57 3.5 W 26 48 14 26 - - 0.0
29/07:30pm 9.5 2.4 1.2 56 3.7 W 28 52 15 28 - - 0.0
29/07:24pm 9.4 2.3 1.1 56 3.6 W 28 52 15 28 - - 0.0
29/07:00pm 9.2 2.4 0.9 56 3.6 W 26 43 14 23 - - 0.0
29/06:30pm 9.5 2.3 0.7 54 3.8 W 28 46 15 25 - - 0.0
29/06:00pm 9.9 1.9 0.5 52 4.1 W 32 54 17 29 - - 0.0
29/05:30pm 10.4 2.1 -0.1 48 4.5 W 33 65 18 35 - - 0.0
29/05:00pm 11.0 2.8 0.1 47 4.7 W 33 54 18 29 - - 0.0
29/04:30pm 11.6 3.6 0.1 45 5.0 W 32 50 17 27 - - 0.0
29/04:00pm 12.1 4.5 0.8 46 5.0 W 30 48 16 26 - - 0.0
29/03:30pm 12.0 1.4 0.8 46 5.0 W 46 76 25 41 - - 0.0
29/03:00pm 12.2 1.6 0.9 46 5.1 W 46 72 25 39 - - 0.0
29/02:30pm 12.2 2.5 0.6 45 5.2 WSW 41 78 22 42 - - 0.0
29/02:00pm 11.9 1.3 1.0 47 4.9 W 46 78 25 42 - - 0.0
29/01:30pm 11.3 -0.8 1.0 49 4.6 W 54 78 29 42 - - 0.0
29/01:00pm 11.1 0.9 1.1 50 4.5 W 44 70 24 38 - - 0.0
29/12:30pm 10.7 -0.3 0.7 50 4.4 W 48 74 26 40 - - 0.0
29/12:00pm 10.1 -1.0 0.2 50 4.3 W 48 87 26 47 - - 0.0
29/11:30am 10.0 -0.3 0.1 50 4.3 W 44 74 24 40 - - 0.0
29/11:00am 9.1 -1.1 -0.2 52 3.9 W 43 67 23 36 - - 0.0
29/10:30am 8.7 -0.8 -0.6 52 3.9 W 39 67 21 36 - - 0.0
29/10:00am 8.4 -0.3 -0.6 53 3.8 W 35 54 19 29 - - 0.0
29/09:30am 8.2 0.0 -0.8 53 3.7 W 32 52 17 28 - - 0.0
29/09:00am 7.7 -1.1 -1.0 54 3.6 WSW 35 56 19 30 - - 0.0
29/08:36am 7.4 -0.7 -0.5 57 3.3 W 32 50 17 27 - - 0.0
29/08:30am 7.3 -1.0 -0.6 57 3.3 WSW 33 50 18 27 - - 0.0
29/08:09am 7.1 -1.6 -0.6 58 3.2 W 35 54 19 29 - - 0.0
29/08:00am 7.1 -2.0 -0.4 59 3.1 W 37 52 20 28 - - 0.0
29/07:37am 6.6 -1.6 0.1 63 2.7 W 33 56 18 30 - - 0.0
29/07:30am 6.6 -1.7 -0.1 62 2.8 W 33 44 18 24 - - 0.0
29/07:02am 6.6 -0.7 0.3 64 2.6 W 28 46 15 25 - - 0.0
29/07:00am 6.5 -0.4 0.2 64 2.6 W 26 48 14 26 - - 0.0
29/06:30am 6.3 -0.2 0.6 67 2.4 W 24 35 13 19 - - 0.0
29/06:00am 6.2 0.1 0.7 68 2.3 W 22 32 12 17 - - 0.0
29/05:30am 6.2 -1.9 0.7 68 2.3 W 33 48 18 26 - - 0.0
29/05:00am 6.4 -1.7 0.7 67 2.4 WSW 33 59 18 32 - - 0.0
29/04:42am 5.7 -1.8 1.1 72 1.9 WSW 30 52 16 28 - - 0.0
29/04:30am 5.4 -1.8 1.0 73 1.9 WSW 28 37 15 20 - - 0.0
29/04:00am 5.7 -1.8 1.1 72 1.9 WSW 30 39 16 21 - - 0.0
29/03:30am 5.9 -1.6 1.1 71 2.0 W 30 46 16 25 - - 0.0
29/03:00am 5.8 -1.7 1.2 72 2.0 W 30 41 16 22 - - 0.0
29/02:30am 6.1 -2.0 1.2 71 2.1 WSW 33 44 18 24 - - 0.0
29/02:00am 5.9 -1.2 1.2 72 2.0 WSW 28 43 15 23 - - 0.0
29/01:30am 5.9 -0.8 1.2 72 2.0 WSW 26 41 14 22 - - 0.0
29/01:12am 6.0 -1.5 1.2 71 2.0 W 30 48 16 26 - - 0.0
29/01:00am 6.1 -2.4 1.2 71 2.1 W 35 50 19 27 - - 0.0
29/12:45am 6.1 -2.7 1.2 71 2.1 W 37 56 20 30 - - 0.0
29/12:30am 5.8 -2.2 1.5 74 1.8 W 33 50 18 27 - - 0.0
29/12:06am 5.8 -2.2 1.9 76 1.7 W 33 52 18 28 - - 0.0
29/12:00am 5.5 -2.5 1.8 77 1.6 W 33 46 18 25 - - 0.0
 
Date/Time
EST
Tmp

°C
App
Tmp
°C
Dew
Point
°C
Rel
Hum
%
Delta-T

°C
Wind Press
QNH
hPa
Press
MSL
hPa
Rain
since
9 am
mm
Dir
 
Spd
km/h
Gust
km/h
Spd
kts
Gust
kts
28/11:30pm 5.4 -2.4 1.7 77 1.6 W 32 50 17 27 - - 0.0
28/11:00pm 5.7 -2.2 2.0 77 1.6 W 33 54 18 29 - - 0.0
28/10:40pm 5.9 -2.8 2.0 76 1.7 W 37 56 20 30 - - 0.0
28/10:30pm 5.7 -2.7 1.8 76 1.7 W 35 52 19 28 - - 0.0
28/10:00pm 5.7 -3.0 1.8 76 1.7 W 37 50 20 27 - - 0.0
28/09:36pm 5.8 -2.5 1.9 76 1.7 W 35 54 19 29 - - 0.0
28/09:30pm 5.6 -2.4 1.9 77 1.6 W 33 50 18 27 - - 0.0
28/09:00pm 5.6 -2.2 1.9 77 1.6 W 32 50 17 27 - - 0.0
28/08:30pm 6.1 -1.7 2.0 75 1.8 W 32 48 17 26 - - 0.0
28/08:00pm 6.4 -1.3 2.1 74 1.9 W 32 48 17 26 - - 0.0
28/07:30pm 6.5 -0.1 2.0 73 2.0 W 26 41 14 22 - - 0.0
28/07:00pm 6.7 -0.4 1.6 70 2.2 W 28 39 15 21 - - 0.0
28/06:30pm 7.0 0.7 1.7 69 2.3 W 24 35 13 19 - - 0.0
28/06:00pm 7.1 0.4 1.4 67 2.5 W 26 37 14 20 - - 0.0
28/05:30pm 7.4 1.1 1.5 66 2.6 W 24 37 13 20 - - 0.0
28/05:00pm 8.1 0.6 1.5 63 2.9 W 30 39 16 21 - - 0.0
28/04:30pm 8.4 0.4 0.4 57 3.4 W 32 50 17 27 - - 0.0
28/04:24pm 8.6 1.3 0.1 55 3.6 W 28 46 15 25 - - 0.0
28/04:00pm 8.9 3.3 1.1 58 3.4 W 20 35 11 19 - - 0.0
28/03:30pm 8.8 2.9 1.9 62 3.1 W 22 39 12 21 - - 0.0
28/03:00pm 9.3 2.3 1.9 60 3.3 W 28 43 15 23 - - 0.0
28/02:35pm 9.8 2.5 2.4 60 3.4 W 30 52 16 28 - - 0.0
28/02:30pm 10.3 3.2 3.3 62 3.3 W 30 43 16 23 - - 0.0
28/02:00pm 9.0 1.2 2.6 64 2.9 W 33 48 18 26 - - 0.0
28/01:40pm 8.9 0.0 3.1 67 2.7 W 39 57 21 31 - - 0.0
28/01:30pm 8.3 -0.2 3.4 71 2.2 W 37 52 20 28 - - 0.0

Latest Capital City Observations: Canberra | Sydney | Melbourne | Brisbane | Adelaide | Perth | Hobart | Darwin

Other Formats:

Comma delimited format used in spreadsheet applications
http://www.bom.gov.au/fwo/IDN60901/IDN60901.94743.axf

JavaScript Object Notation format (JSON) in row-major order
http://www.bom.gov.au/fwo/IDN60901/IDN60901.94743.json